Latest Weather Observations for Adelaide Airport

IDS60801

Issued at 12:01 pm CST Sunday 24 July 2016 (issued every 30 minutes, with the page automatically refreshed every 10 minutes)

About weather observations | Map of weather stations | Latest weather observations for SA | Other Formats
Station Details ID: 023034 Name: ADELAIDE AIRPORT Lat: -34.95 Lon: 138.52 Height: 2.0 m
Data from the previous 72 hours. | See also: Recent months at Adelaide Airport
Date/Time
CST
Temp
°C
App
Temp
°C
Dew
Point
°C
Rel
Hum
%
Delta-T
°C
Wind Press
QNH
hPa
Press
MSL
hPa
Rain since
9am
mm
Dir  Spd
km/h
Gust
km/h
Spd
kts
Gust
kts
24/11:30am 10.2 3.1 6.6 78 1.7 NW 33 48 18 26 1008.7 1008.7 3.6
24/11:26am 10.2 3.7 6.6 78 1.7 NW 30 48 16 26 1008.8 1008.8 3.6
24/11:00am 10.0 2.9 5.4 73 2.1 NW 32 43 17 23 1009.0 1009.0 3.6
24/10:30am 9.3 2.3 5.8 79 1.6 WNW 32 50 17 27 1008.7 1008.7 3.4
24/10:23am 8.6 3.3 6.7 88 0.9 WNW 24 33 13 18 1008.8 1008.8 3.4
24/10:06am 7.3 -1.1 5.5 88 0.8 W 39 61 21 33 1008.8 1008.8 3.0
24/10:00am 7.4 -2.4 5.1 85 1.0 NW 46 61 25 33 1008.7 1008.7 2.8
24/09:40am 9.8 1.4 7.5 85 1.1 NNW 41 59 22 32 1008.1 1008.1 1.0
24/09:30am 10.2 0.8 7.0 80 1.5 NNW 46 61 25 33 1008.1 1008.1 0.4
24/09:28am 10.2 0.8 7.0 80 1.5 NNW 46 61 25 33 1008.0 1008.0 0.4
24/09:17am 10.5 4.4 6.5 76 1.9 NNW 28 48 15 26 1007.9 1007.9 0.4
24/09:00am 10.6 4.4 6.1 74 2.1 N 28 44 15 24 1008.0 1008.0 0.6
24/08:30am 10.4 3.4 6.8 78 1.7 N 33 43 18 23 1008.2 1008.2 0.6
24/08:00am 10.1 3.2 6.5 78 1.7 N 32 39 17 21 1008.4 1008.4 0.6
24/07:45am 10.0 3.9 6.4 78 1.7 N 28 46 15 25 1008.4 1008.4 0.6
24/07:30am 9.7 3.5 6.3 79 1.6 N 28 37 15 20 1008.4 1008.4 0.6
24/07:00am 9.3 3.2 6.7 84 1.2 N 28 41 15 22 1008.6 1008.6 0.6
24/06:30am 8.8 2.6 6.0 82 1.3 N 28 35 15 19 1009.1 1009.1 0.4
24/06:00am 9.0 2.9 5.0 76 1.8 N 26 33 14 18 1009.1 1009.1 0.2
24/05:30am 8.5 3.1 4.7 77 1.7 N 22 30 12 16 1009.4 1009.4 0.2
24/05:00am 8.4 2.7 4.8 78 1.6 NNE 24 32 13 17 1009.7 1009.7 0.2
24/04:30am 8.1 2.8 4.9 80 1.4 NNE 22 28 12 15 1010.1 1010.1 0.2
24/04:00am 7.4 2.0 4.7 83 1.2 NNE 22 28 12 15 1010.4 1010.4 0.2
24/03:30am 7.4 3.0 4.9 84 1.1 NNE 17 20 9 11 1011.2 1011.2 0.2
24/03:00am 7.1 2.8 5.1 87 0.9 NNE 17 20 9 11 1011.5 1011.5 0.2
24/02:30am 6.9 2.5 4.8 86 0.9 NNE 17 19 9 10 1011.9 1011.9 0.2
24/02:00am 6.9 2.5 4.8 86 0.9 NNE 17 19 9 10 1012.4 1012.4 0.2
24/01:30am 6.9 2.6 5.1 88 0.8 NNE 17 19 9 10 1012.9 1012.9 0.2
24/01:00am 6.9 2.3 5.6 91 0.6 NNE 19 24 10 13 1013.4 1013.4 0.2
24/12:30am 6.9 2.7 5.6 91 0.6 NNE 17 20 9 11 1013.9 1013.9 0.2
24/12:00am 7.0 3.2 5.9 93 0.5 NE 15 17 8 9 1014.1 1014.1 0.2
 
Date/Time
CST
Temp
°C
App
Temp
°C
Dew
Point
°C
Rel
Hum
%
Delta-T
°C
Wind Press
QNH
hPa
Press
MSL
hPa
Rain since
9am
mm
Dir  Spd
km/h
Gust
km/h
Spd
kts
Gust
kts
23/11:30pm 7.3 3.5 6.0 91 0.6 NNE 15 19 8 10 1014.6 1014.6 0.2
23/11:00pm 7.8 3.7 6.0 88 0.8 NNE 17 19 9 10 1014.8 1014.8 0.2
23/10:30pm 8.3 4.2 6.3 87 0.9 NNE 17 24 9 13 1015.0 1015.0 0.2
23/10:00pm 8.7 4.6 6.3 85 1.1 N 17 20 9 11 1015.1 1015.1 0.2
23/09:30pm 9.0 5.6 5.9 81 1.4 N 13 17 7 9 1015.2 1015.2 0.2
23/09:00pm 9.5 6.4 5.5 76 1.8 N 11 13 6 7 1015.3 1015.3 0.2
23/08:30pm 10.1 6.6 5.5 73 2.1 NNW 13 17 7 9 1015.4 1015.4 0.2
23/08:00pm 9.9 6.8 5.5 74 2.0 NNW 11 15 6 8 1015.4 1015.4 0.2
23/07:30pm 10.7 7.9 5.0 68 2.6 N 9 11 5 6 1015.4 1015.4 0.2
23/07:00pm 10.7 7.0 4.7 66 2.7 NNW 13 15 7 8 1015.4 1015.4 0.2
23/06:30pm 10.3 6.9 5.7 73 2.1 NNW 13 17 7 9 1015.2 1015.2 0.2
23/06:00pm 10.6 7.5 5.6 71 2.3 NW 11 15 6 8 1015.2 1015.2 0.2
23/05:30pm 10.6 6.5 6.3 75 2.0 WNW 17 22 9 12 1015.1 1015.1 0.2
23/05:00pm 10.9 7.1 5.9 71 2.3 NW 15 22 8 12 1015.0 1015.0 0.2
23/04:30pm 11.1 7.1 4.9 65 2.8 WNW 15 20 8 11 1015.0 1015.0 0.2
23/04:00pm 11.7 7.2 6.2 69 2.6 WNW 19 26 10 14 1015.0 1015.0 0.2
23/03:30pm 10.3 6.1 7.6 83 1.3 SW 19 28 10 15 1015.1 1015.1 0.2
23/03:00pm 13.1 8.4 3.2 51 4.4 WNW 17 20 9 11 1014.9 1014.9 0.0
23/02:30pm 13.1 8.9 3.8 53 4.2 WNW 15 22 8 12 1014.9 1014.9 0.0
23/02:00pm 12.9 8.1 2.6 49 4.5 W 17 22 9 12 1014.8 1014.8 0.0
23/01:30pm 12.7 8.0 3.2 52 4.2 WSW 17 24 9 13 1014.8 1014.8 0.0
23/01:00pm 12.6 7.9 3.1 52 4.2 WSW 17 20 9 11 1014.9 1014.9 0.0
23/12:30pm 12.8 7.8 3.4 53 4.2 SW 19 24 10 13 1014.9 1014.9 0.0
23/12:00pm 12.5 7.4 3.2 53 4.1 SW 19 26 10 14 1015.1 1015.1 0.0
23/11:30am 12.7 6.7 3.2 52 4.2 SW 24 28 13 15 1015.4 1015.4 0.0
23/11:00am 12.5 7.1 2.4 50 4.4 SW 20 28 11 15 1015.3 1015.3 0.0
23/10:30am 12.1 8.0 4.1 58 3.6 SSW 15 22 8 12 1015.1 1015.1 0.0
23/10:00am 11.5 8.2 4.7 63 3.1 S 11 15 6 8 1014.9 1014.9 0.0
23/09:30am 12.2 7.8 4.8 60 3.4 SW 17 28 9 15 1014.5 1014.5 0.0
23/09:00am 11.1 6.2 5.2 67 2.7 SW 20 26 11 14 1014.1 1014.1 3.4
23/08:30am 11.1 5.9 5.7 69 2.5 SW 22 30 12 16 1013.6 1013.6 3.4
23/08:00am 10.7 6.4 5.2 69 2.5 SSW 17 26 9 14 1013.0 1013.0 3.4
23/07:30am 10.9 4.9 5.5 69 2.5 SSW 26 35 14 19 1012.6 1012.6 3.2
23/07:00am 10.6 5.8 5.6 71 2.3 SW 20 28 11 15 1012.0 1012.0 3.2
23/06:30am 10.9 5.0 5.7 70 2.4 SW 26 35 14 19 1011.5 1011.5 3.2
23/06:00am 10.9 5.6 5.2 68 2.6 SW 22 28 12 15 1011.2 1011.2 3.2
23/05:30am 11.2 4.4 5.3 67 2.7 SW 30 37 16 20 1010.8 1010.8 3.2
23/05:00am 11.3 4.7 5.9 69 2.5 SW 30 37 16 20 1010.4 1010.4 3.2
23/04:30am 11.3 5.0 5.7 68 2.6 SW 28 35 15 19 1009.8 1009.8 3.2
23/04:00am 11.3 5.0 5.9 69 2.5 WSW 28 37 15 20 1009.4 1009.4 3.2
23/03:30am 11.3 4.6 5.5 67 2.7 WSW 30 39 16 21 1009.2 1009.2 3.2
23/03:00am 11.4 4.4 5.8 68 2.6 SW 32 41 17 22 1009.4 1009.4 3.2
23/02:30am 11.4 5.1 5.8 68 2.6 SW 28 35 15 19 1009.3 1009.3 3.2
23/02:00am 11.4 5.0 5.3 66 2.8 SW 28 35 15 19 1009.2 1009.2 3.2
23/01:30am 11.6 4.9 5.8 67 2.7 SW 30 41 16 22 1008.8 1008.8 3.2
23/01:00am 11.8 3.1 5.8 66 2.8 WSW 41 52 22 28 1008.4 1008.4 3.2
23/12:39am 12.2 2.7 5.0 61 3.3 WSW 44 63 24 34 1008.1 1008.1 3.2
23/12:30am 12.1 2.6 4.9 61 3.3 WSW 44 57 24 31 1008.0 1008.0 3.2
23/12:16am 11.8 4.8 5.8 66 2.8 W 32 50 17 27 1007.9 1007.9 3.2
23/12:00am 11.6 4.1 6.3 70 2.5 W 35 46 19 25 1007.7 1007.7 3.2
 
Date/Time
CST
Temp
°C
App
Temp
°C
Dew
Point
°C
Rel
Hum
%
Delta-T
°C
Wind Press
QNH
hPa
Press
MSL
hPa
Rain since
9am
mm
Dir  Spd
km/h
Gust
km/h
Spd
kts
Gust
kts
22/11:30pm 12.2 3.2 4.8 60 3.4 W 41 56 22 30 1007.2 1007.2 3.0
22/11:13pm 12.1 3.0 3.9 57 3.7 W 41 59 22 32 1006.9 1006.9 3.0
22/11:00pm 11.9 3.5 5.4 64 3.0 W 39 52 21 28 1006.6 1006.6 3.0
22/10:30pm 11.8 2.6 6.3 69 2.6 W 44 61 24 33 1006.3 1006.3 3.0
22/10:16pm 11.9 2.7 6.4 69 2.6 WNW 44 65 24 35 1006.1 1006.1 3.0
22/10:00pm 12.1 1.7 5.9 66 2.9 WNW 50 63 27 34 1005.8 1005.8 3.0
22/09:52pm 12.2 2.9 6.1 66 2.9 WNW 44 63 24 34 1005.5 1005.5 3.0
22/09:30pm 11.9 3.3 6.4 69 2.6 WNW 41 54 22 29 1005.3 1005.3 3.0
22/09:07pm 12.0 3.0 6.5 69 2.6 WNW 43 61 23 33 1005.1 1005.1 3.0
22/09:00pm 12.1 2.8 5.9 66 2.9 W 44 59 24 32 1004.9 1004.9 3.0
22/08:30pm 12.0 1.6 4.3 59 3.5 W 48 63 26 34 1004.7 1004.7 3.0
22/08:21pm 12.0 2.4 4.5 60 3.4 W 44 63 24 34 1004.7 1004.7 3.0
22/08:00pm 11.9 3.5 5.5 65 3.0 WNW 39 54 21 29 1004.4 1004.4 3.0
22/07:30pm 10.3 1.1 6.2 76 1.9 WNW 44 80 24 43 1004.2 1004.2 3.0
22/07:00pm 11.3 2.6 6.2 71 2.4 W 41 56 22 30 1003.6 1003.6 2.8
22/06:46pm 10.9 0.6 6.5 74 2.1 W 50 69 27 37 1003.4 1003.4 2.8
22/06:30pm 10.4 -0.7 6.3 76 1.9 WNW 54 93 29 50 1003.2 1003.2 2.8
22/06:24pm 10.0 1.5 7.1 82 1.4 WNW 41 93 22 50 1003.3 1003.3 2.6
22/06:23pm 10.6 2.6 7.5 81 1.5 WNW 39 67 21 36 1003.4 1003.4 2.6
22/06:00pm 12.6 4.2 7.5 71 2.5 WNW 41 56 22 30 1002.5 1002.5 1.8
22/05:30pm 11.7 4.0 8.7 82 1.5 WNW 39 56 21 30 1001.9 1001.9 1.8
22/05:16pm 11.1 3.1 8.9 86 1.1 W 41 59 22 32 1001.8 1001.8 1.8
22/05:02pm 10.8 1.6 8.1 83 1.3 WNW 46 63 25 34 1002.1 1002.1 1.2
22/05:00pm 12.0 2.8 7.9 76 2.0 WNW 46 61 25 33 1002.0 1002.0 0.4
22/04:49pm 12.9 4.5 8.9 76 2.0 NW 43 61 23 33 1001.2 1001.2 0.4
22/04:30pm 12.9 3.8 8.3 73 2.3 WNW 46 59 25 32 1001.2 1001.2 0.4
22/04:00pm 12.1 3.6 8.5 78 1.8 WNW 43 56 23 30 1001.0 1001.0 0.4
22/03:55pm 11.9 2.9 8.7 81 1.6 WNW 46 65 25 35 1001.0 1001.0 0.4
22/03:44pm 11.8 1.2 8.4 80 1.7 WNW 54 76 29 41 1001.1 1001.1 0.4
22/03:36pm 12.4 3.8 9.0 80 1.7 NW 44 74 24 40 1001.2 1001.2 0.4
22/03:30pm 13.8 5.9 9.3 74 2.3 NW 41 56 22 30 1000.6 1000.6 0.4
22/03:00pm 13.9 7.1 10.7 81 1.7 NW 37 50 20 27 1000.3 1000.3 0.4
22/02:30pm 13.4 6.7 9.7 78 1.9 NW 35 46 19 25 1000.4 1000.4 0.4
22/02:00pm 14.4 8.4 10.8 79 1.9 NW 33 41 18 22 1000.2 1000.2 0.4
22/01:30pm 13.4 7.4 10.7 84 1.4 NW 33 39 18 21 1000.5 1000.5 0.4
22/01:13pm 13.4 6.9 11.7 89 0.9 NW 37 50 20 27 1001.0 1001.0 0.2
22/01:06pm 13.8 8.0 11.6 86 1.2 NW 33 41 18 22 1001.0 1001.0 0.0
22/01:00pm 14.5 8.6 11.3 81 1.7 NW 33 41 18 22 1001.1 1001.1 0.0
22/12:30pm 15.1 9.2 11.2 77 2.1 NW 33 43 18 23 1001.2 1001.2 0.0
22/12:00pm 14.8 8.5 10.9 77 2.1 NNW 35 41 19 22 1001.7 1001.7 0.0
22/11:30am 14.3 8.6 11.1 81 1.7 NNW 32 41 17 22 1002.1 1002.1 0.0
22/11:00am 13.9 7.2 9.6 75 2.2 NW 35 50 19 27 1002.6 1002.6 0.0
22/10:30am 14.4 8.1 11.0 80 1.8 NNW 35 50 19 27 1003.0 1003.0 0.0
22/10:21am 14.3 8.6 11.1 81 1.7 NNW 32 50 17 27 1003.0 1003.0 0.0
22/10:00am 14.3 8.6 11.1 81 1.7 NNW 32 37 17 20 1003.4 1003.4 0.0
22/09:30am 14.3 9.3 11.1 81 1.7 NNW 28 39 15 21 1003.5 1003.5 0.0
22/09:00am 14.2 9.3 11.2 82 1.6 NNW 28 32 15 17 1003.9 1003.9 0.2
22/08:30am 14.2 9.0 11.6 84 1.4 NNW 30 41 16 22 1003.6 1003.6 0.2
22/08:00am 14.2 9.4 11.6 84 1.4 NNW 28 35 15 19 1003.6 1003.6 0.2
22/07:30am 14.2 9.8 11.6 84 1.4 NNW 26 32 14 17 1003.5 1003.5 0.2
22/07:00am 14.1 9.8 11.9 86 1.2 NNW 26 32 14 17 1003.5 1003.5 0.2
22/06:30am 14.1 11.0 12.1 88 1.1 NNW 20 32 11 17 1003.4 1003.4 0.2
22/06:00am 14.2 10.3 12.0 87 1.2 NW 24 30 13 16 1003.5 1003.5 0.2
22/05:30am 14.3 11.2 12.1 87 1.2 NNW 20 26 11 14 1003.2 1003.2 0.2
22/05:00am 14.3 10.4 12.1 87 1.2 NW 24 33 13 18 1003.4 1003.4 0.0
22/04:30am 14.7 11.4 11.7 82 1.6 NNW 20 28 11 15 1003.0 1003.0 0.0
22/04:00am 15.0 11.7 11.7 80 1.8 NNW 20 28 11 15 1003.4 1003.4 0.0
22/03:30am 15.1 11.6 12.2 83 1.6 NNW 22 28 12 15 1003.5 1003.5 0.0
22/03:00am 15.2 11.7 12.1 82 1.7 NNW 22 30 12 16 1003.4 1003.4 0.0
22/02:30am 15.6 12.5 11.7 77 2.1 NNW 19 28 10 15 1003.6 1003.6 0.0
22/02:00am 15.7 12.6 11.6 76 2.2 NNW 19 26 10 14 1003.7 1003.7 0.0
22/01:30am 15.4 12.8 11.9 79 1.9 NW 17 26 9 14 1004.1 1004.1 0.0
22/01:00am 15.3 12.8 12.2 82 1.7 WNW 17 20 9 11 1004.4 1004.4 0.0
22/12:30am 15.5 13.8 12.4 82 1.7 WNW 13 19 7 10 1004.5 1004.5 0.0
22/12:00am 15.8 13.4 12.7 82 1.7 WNW 17 26 9 14 1004.9 1004.9 0.0
 
Date/Time
CST
Temp
°C
App
Temp
°C
Dew
Point
°C
Rel
Hum
%
Delta-T
°C
Wind Press
QNH
hPa
Press
MSL
hPa
Rain since
9am
mm
Dir  Spd
km/h
Gust
km/h
Spd
kts
Gust
kts
21/11:30pm 16.9 12.8 12.8 77 2.3 NW 26 33 14 18 1004.8 1004.8 0.0
21/11:00pm 18.4 13.7 13.3 72 2.9 NNW 30 41 16 22 1004.7 1004.7 0.0
21/10:47pm 20.5 15.5 13.4 63 4.1 N 32 43 17 23 1003.4 1003.4 0.0
21/10:30pm 20.8 16.1 13.3 62 4.3 N 30 41 16 22 1003.8 1003.8 0.0
21/10:19pm 20.6 16.4 13.5 63 4.1 N 28 50 15 27 1003.8 1003.8 0.0
21/10:00pm 20.2 16.1 13.8 66 3.7 N 28 35 15 19 1004.1 1004.1 0.0
21/09:30pm 20.5 16.0 13.9 66 3.8 N 30 41 16 22 1004.4 1004.4 0.0
21/09:00pm 20.5 16.5 14.1 66 3.7 N 28 41 15 22 1004.6 1004.6 0.0
21/08:30pm 20.4 16.4 14.2 67 3.6 N 28 35 15 19 1005.3 1005.3 0.0
21/08:00pm 20.6 16.7 14.3 67 3.7 NNE 28 35 15 19 1005.3 1005.3 0.0
21/07:30pm 20.8 16.5 14.3 66 3.8 N 30 37 16 20 1005.2 1005.2 0.0
21/07:00pm 20.6 17.1 14.6 68 3.5 N 26 33 14 18 1005.5 1005.5 0.0
21/06:44pm 20.7 17.2 14.6 68 3.6 N 26 35 14 19 1005.4 1005.4 0.0
21/06:30pm 20.8 17.4 14.7 68 3.6 N 26 33 14 18 1005.7 1005.7 0.0
21/06:00pm 20.9 16.6 14.4 66 3.8 N 30 39 16 21 1005.7 1005.7 0.0
21/05:30pm 21.2 17.2 14.2 64 4.1 N 28 37 15 20 1005.9 1005.9 0.0
21/05:00pm 21.4 17.1 14.4 64 4.1 N 30 41 16 22 1006.3 1006.3 0.0
21/04:30pm 21.5 17.6 14.3 63 4.2 N 28 37 15 20 1006.4 1006.4 0.0
21/04:00pm 21.4 17.4 14.2 63 4.2 N 28 33 15 18 1006.8 1006.8 0.0
21/03:30pm 21.4 18.9 14.2 63 4.2 N 20 35 11 19 1007.6 1007.6 0.0
21/03:00pm 21.2 17.1 13.8 62 4.3 N 28 37 15 20 1008.0 1008.0 0.0
21/02:30pm 21.8 19.0 14.3 62 4.4 N 22 30 12 16 1009.0 1009.0 0.0
21/02:00pm 21.9 17.7 13.6 59 4.8 N 28 43 15 23 1008.8 1008.8 0.0
21/01:30pm 22.2 17.5 13.2 56 5.2 N 30 43 16 23 1009.4 1009.4 0.0
21/01:00pm 21.3 18.0 12.9 58 4.8 N 22 33 12 18 1010.3 1010.3 0.0
21/12:30pm 21.1 17.4 12.8 59 4.7 N 24 37 13 20 1011.1 1011.1 0.0

Other Formats:

Comma delimited format used in spreadsheet applications
http://www.bom.gov.au/fwo/IDS60801/IDS60801.94672.axf

JavaScript Object Notation format (JSON) in row-major order
http://www.bom.gov.au/fwo/IDS60801/IDS60801.94672.json